createdAt,value
2023-04-23T00:00:13.215Z,16.35
2023-04-23T00:02:40.177Z,16.60
2023-04-23T00:05:07.457Z,15.63
2023-04-23T00:07:34.724Z,16.55
2023-04-23T00:10:05.564Z,16.35
2023-04-23T00:12:32.540Z,16.48
2023-04-23T00:15:00.429Z,15.93
2023-04-23T00:17:27.549Z,17.23
2023-04-23T00:19:54.375Z,17.17
2023-04-23T00:22:22.019Z,15.40
2023-04-23T00:24:48.579Z,16.05
2023-04-23T00:27:15.208Z,16.42
2023-04-23T00:29:43.225Z,15.48
2023-04-23T00:32:09.829Z,16.60
2023-04-23T00:34:36.456Z,16.27
2023-04-23T00:37:06.675Z,15.88
2023-04-23T00:39:33.285Z,16.98
2023-04-23T00:42:06.969Z,14.57
2023-04-23T00:47:00.712Z,14.23
2023-04-23T00:49:28.134Z,15.73
2023-04-23T00:51:54.770Z,16.40
2023-04-23T00:54:22.091Z,14.85
2023-04-23T00:56:49.602Z,14.63
2023-04-23T00:59:16.155Z,14.75
2023-04-23T01:01:45.461Z,15.07
2023-04-23T01:04:17.615Z,14.25
2023-04-23T01:06:47.077Z,13.98
2023-04-23T01:09:15.779Z,13.40
2023-04-23T01:11:43.434Z,15.10
2023-04-23T01:14:11.437Z,14.13
2023-04-23T01:16:38.661Z,13.88
2023-04-23T01:19:10.159Z,14.27
2023-04-23T01:21:41.115Z,13.77
2023-04-23T01:24:08.804Z,13.00
2023-04-23T01:26:35.606Z,15.30
2023-04-23T01:29:02.576Z,13.70
2023-04-23T01:31:30.645Z,13.80
2023-04-23T01:33:58.727Z,14.10
2023-04-23T01:36:25.420Z,14.35
2023-04-23T01:38:53.153Z,13.95
2023-04-23T01:41:22.699Z,13.93
2023-04-23T01:43:49.504Z,13.65
2023-04-23T01:46:16.358Z,14.10
2023-04-23T01:48:43.090Z,14.07
2023-04-23T01:51:09.607Z,13.32
2023-04-23T01:53:36.172Z,13.35
2023-04-23T01:56:03.712Z,13.85
2023-04-23T01:58:30.241Z,13.60
2023-04-23T02:00:57.116Z,13.85
2023-04-23T02:03:23.839Z,13.82
2023-04-23T02:05:50.915Z,13.63
2023-04-23T02:08:17.554Z,14.13
2023-04-23T02:10:44.175Z,13.55
2023-04-23T02:13:10.789Z,12.18
2023-04-23T02:15:38.222Z,12.45
2023-04-23T02:18:04.918Z,12.77
2023-04-23T02:20:31.575Z,13.60
2023-04-23T02:22:58.173Z,12.57
2023-04-23T02:25:24.651Z,13.00
2023-04-23T02:27:51.210Z,13.00
2023-04-23T02:30:17.777Z,12.30
2023-04-23T02:32:44.467Z,11.45
2023-04-23T02:35:11.068Z,12.25
2023-04-23T02:37:37.658Z,12.38
2023-04-23T02:40:08.132Z,12.85
2023-04-23T02:42:34.801Z,12.52
2023-04-23T02:45:01.457Z,12.70
2023-04-23T02:47:28.011Z,12.40
2023-04-23T02:49:54.574Z,12.68
2023-04-23T02:52:21.379Z,12.52
2023-04-23T02:54:48.363Z,11.95
2023-04-23T02:57:16.409Z,11.75
2023-04-23T02:59:43.446Z,11.60
2023-04-23T03:02:10.146Z,12.98
2023-04-23T03:04:36.867Z,11.50
2023-04-23T03:07:03.428Z,12.60
2023-04-23T03:09:30.132Z,12.45
2023-04-23T03:11:57.694Z,11.48
2023-04-23T03:14:24.288Z,12.32
2023-04-23T03:16:50.847Z,11.80
2023-04-23T03:19:17.461Z,11.27
2023-04-23T03:21:43.962Z,11.43
2023-04-23T03:24:13.506Z,10.52
2023-04-23T03:26:40.002Z,10.63
2023-04-23T03:29:06.904Z,10.50
2023-04-23T03:31:33.630Z,11.18
2023-04-23T03:34:00.395Z,10.48
2023-04-23T03:36:26.928Z,10.27
2023-04-23T03:38:53.403Z,11.43
2023-04-23T03:41:19.920Z,10.73
2023-04-23T03:43:46.509Z,9.52
2023-04-23T03:46:13.076Z,10.18
2023-04-23T03:48:39.670Z,10.38
2023-04-23T03:51:06.213Z,10.02
2023-04-23T03:53:32.744Z,9.63
2023-04-23T03:55:59.273Z,9.75
2023-04-23T03:58:26.071Z,9.43
2023-04-23T04:00:52.667Z,9.30
2023-04-23T04:03:19.311Z,9.32
2023-04-23T04:05:45.964Z,10.00
2023-04-23T04:08:12.552Z,9.95
2023-04-23T04:10:39.141Z,9.27
2023-04-23T04:13:05.670Z,10.10
2023-04-23T04:15:33.109Z,9.70
2023-04-23T04:18:01.183Z,8.77
2023-04-23T04:20:30.652Z,10.05
2023-04-23T04:22:57.143Z,8.60
2023-04-23T04:25:24.186Z,9.85
2023-04-23T04:27:50.870Z,8.35
2023-04-23T04:30:17.425Z,9.00
2023-04-23T04:32:45.660Z,8.77
2023-04-23T04:35:15.476Z,8.32
2023-04-23T04:37:44.052Z,7.72
2023-04-23T04:40:11.653Z,7.78
2023-04-23T04:42:39.170Z,7.88
2023-04-23T04:45:06.323Z,8.85
2023-04-23T04:47:32.927Z,8.95
2023-04-23T04:50:00.502Z,8.75
2023-04-23T04:52:27.669Z,8.25
2023-04-23T04:54:54.209Z,8.88
2023-04-23T04:57:22.859Z,8.32
2023-04-23T04:59:50.295Z,8.10
2023-04-23T05:02:17.096Z,8.02
2023-04-23T05:04:44.018Z,8.13
2023-04-23T05:07:11.125Z,7.45
2023-04-23T05:09:37.682Z,7.25
2023-04-23T05:12:07.325Z,7.78
2023-04-23T05:14:34.125Z,7.32
2023-04-23T05:17:00.908Z,7.50
2023-04-23T05:19:27.491Z,7.03
2023-04-23T05:21:54.053Z,7.45
2023-04-23T05:24:20.721Z,6.38
2023-04-23T05:26:47.277Z,8.02
2023-04-23T05:29:17.865Z,6.38
2023-04-23T05:31:44.490Z,7.40
2023-04-23T05:34:11.039Z,7.43
2023-04-23T05:36:37.551Z,7.22
2023-04-23T05:39:04.102Z,7.25
2023-04-23T05:41:30.672Z,8.13
2023-04-23T05:43:57.171Z,7.15
2023-04-23T05:46:23.759Z,7.13
2023-04-23T05:48:50.349Z,6.10
2023-04-23T05:51:17.212Z,6.82
2023-04-23T05:53:43.798Z,7.65
2023-04-23T05:56:10.332Z,7.50
2023-04-23T05:58:38.766Z,6.88
2023-04-23T06:01:05.413Z,7.63
2023-04-23T06:03:32.031Z,7.28
2023-04-23T06:05:58.799Z,7.13
2023-04-23T06:08:25.486Z,6.75
2023-04-23T06:10:52.065Z,6.97
2023-04-23T06:13:18.618Z,6.72
2023-04-23T06:15:45.264Z,7.60
2023-04-23T06:18:11.861Z,7.32
2023-04-23T06:20:38.561Z,6.72
2023-04-23T06:23:05.111Z,6.60
2023-04-23T06:25:31.593Z,7.57
2023-04-23T06:27:58.254Z,6.93
2023-04-23T06:30:24.821Z,7.45
2023-04-23T06:32:51.509Z,7.75
2023-04-23T06:35:18.066Z,7.97
2023-04-23T06:37:44.566Z,7.57
2023-04-23T06:40:11.437Z,7.65
2023-04-23T06:42:37.975Z,8.52
2023-04-23T06:45:06.348Z,8.20
2023-04-23T06:47:33.305Z,8.63
2023-04-23T06:50:00.276Z,8.05
2023-04-23T06:52:27.306Z,8.32
2023-04-23T06:54:53.864Z,9.07
2023-04-23T06:57:21.841Z,8.93
2023-04-23T06:59:48.415Z,9.23
2023-04-23T07:02:14.958Z,8.90
2023-04-23T07:04:41.958Z,8.82
2023-04-23T07:07:08.741Z,9.43
2023-04-23T07:09:35.251Z,8.70
2023-04-23T07:12:02.295Z,8.73
2023-04-23T07:14:28.992Z,9.60
2023-04-23T07:16:55.619Z,9.52
2023-04-23T07:19:22.255Z,9.32
2023-04-23T07:21:48.786Z,9.43
2023-04-23T07:24:15.480Z,9.48
2023-04-23T07:26:42.031Z,10.40
2023-04-23T07:29:10.592Z,9.60
2023-04-23T07:31:37.451Z,9.57
2023-04-23T07:34:04.016Z,8.45
2023-04-23T07:36:32.004Z,9.60
2023-04-23T07:38:58.728Z,10.50
2023-04-23T07:41:25.384Z,9.70
2023-04-23T07:43:52.053Z,10.32
2023-04-23T07:46:18.709Z,9.93
2023-04-23T07:48:45.245Z,10.77
2023-04-23T07:51:12.422Z,10.38
2023-04-23T07:53:38.962Z,10.57
2023-04-23T07:56:05.615Z,10.75
2023-04-23T07:58:33.240Z,10.23
2023-04-23T08:00:59.813Z,10.07
2023-04-23T08:03:28.216Z,9.70
2023-04-23T08:05:54.864Z,10.05
2023-04-23T08:08:21.405Z,9.95
2023-04-23T08:10:48.061Z,9.52
2023-04-23T08:13:14.587Z,9.48
2023-04-23T08:15:41.104Z,9.25
2023-04-23T08:18:07.661Z,10.05
2023-04-23T08:20:34.799Z,10.25
2023-04-23T08:23:01.511Z,11.88
2023-04-23T08:25:28.057Z,8.75
2023-04-23T08:27:54.595Z,8.98
2023-04-23T08:30:21.225Z,8.32
2023-04-23T08:32:51.109Z,8.50
2023-04-23T08:35:18.014Z,9.40
2023-04-23T08:37:44.668Z,11.80
2023-04-23T08:40:11.498Z,14.73
2023-04-23T08:42:57.262Z,15.32
2023-04-23T08:45:26.143Z,13.55
2023-04-23T08:48:00.286Z,14.65
2023-04-23T08:50:29.270Z,15.40
2023-04-23T08:52:57.662Z,15.07
2023-04-23T08:55:25.830Z,15.50
2023-04-23T08:57:52.492Z,15.45
2023-04-23T09:00:21.485Z,15.43
2023-04-23T09:02:50.284Z,15.00
2023-04-23T09:05:17.316Z,15.13
2023-04-23T09:07:44.154Z,14.80
2023-04-23T09:10:12.892Z,14.07
2023-04-23T09:12:43.823Z,14.10
2023-04-23T09:15:11.293Z,14.18
2023-04-23T09:17:41.021Z,13.93
2023-04-23T09:20:09.696Z,14.48
2023-04-23T09:22:47.354Z,12.90
2023-04-23T09:25:17.739Z,13.65
2023-04-23T09:27:46.385Z,13.77
2023-04-23T09:30:13.944Z,13.82
2023-04-23T09:32:43.300Z,13.18
2023-04-23T09:35:13.514Z,12.68
2023-04-23T09:37:48.500Z,13.10
2023-04-23T09:40:20.706Z,12.63
2023-04-23T09:42:55.770Z,11.90
2023-04-23T09:45:24.225Z,10.85
2023-04-23T09:47:55.554Z,11.77
2023-04-23T09:50:40.892Z,11.90
2023-04-23T09:53:09.324Z,11.52
2023-04-23T09:55:42.631Z,10.55
2023-04-23T09:58:13.692Z,10.80
2023-04-23T10:00:40.986Z,10.32
2023-04-23T10:03:09.902Z,11.30
2023-04-23T10:08:16.051Z,8.32
2023-04-23T10:10:57.519Z,9.93
2023-04-23T10:13:29.908Z,8.98
2023-04-23T10:16:04.486Z,9.63
2023-04-23T10:18:37.867Z,9.02
2023-04-23T10:21:05.599Z,9.07
2023-04-23T10:23:34.253Z,9.82
2023-04-23T10:26:04.298Z,9.75
2023-04-23T10:28:33.854Z,10.00
2023-04-23T10:31:01.088Z,12.55
2023-04-23T10:33:35.240Z,15.77
2023-04-23T10:36:07.494Z,14.95
2023-04-23T10:38:36.670Z,15.40
2023-04-23T10:41:05.836Z,13.80
2023-04-23T10:43:32.615Z,15.40
2023-04-23T10:46:00.835Z,17.00
2023-04-23T10:48:50.392Z,17.08
2023-04-23T10:52:02.574Z,18.77
2023-04-23T10:54:04.657Z,18.00
2023-04-23T10:56:31.987Z,17.35
2023-04-23T10:58:58.641Z,17.92
2023-04-23T11:01:28.015Z,17.33
2023-04-23T11:03:55.097Z,19.50
2023-04-23T11:06:49.589Z,16.35
2023-04-23T11:09:36.554Z,17.45
2023-04-23T11:12:07.260Z,17.73
2023-04-23T11:14:43.737Z,16.85
2023-04-23T11:17:16.036Z,15.95
2023-04-23T11:20:03.068Z,16.88
2023-04-23T11:22:58.922Z,15.73
2023-04-23T11:25:27.843Z,13.50
2023-04-23T11:27:58.157Z,15.43
2023-04-23T11:30:28.222Z,15.07
2023-04-23T11:32:56.393Z,15.35
2023-04-23T11:35:28.400Z,13.70
2023-04-23T11:37:55.374Z,13.77
2023-04-23T11:40:22.650Z,13.98
2023-04-23T11:42:51.559Z,14.10
2023-04-23T11:45:28.746Z,15.15
2023-04-23T11:48:00.754Z,14.93
2023-04-23T11:50:30.669Z,12.77
2023-04-23T11:52:57.439Z,14.27
2023-04-23T11:55:24.084Z,13.40
2023-04-23T11:57:52.556Z,14.63
2023-04-23T12:00:19.579Z,14.20
2023-04-23T12:02:56.505Z,14.00
2023-04-23T12:05:33.852Z,14.50
2023-04-23T12:08:34.927Z,15.23
2023-04-23T12:11:03.275Z,14.55
2023-04-23T12:13:33.477Z,14.48
2023-04-23T12:16:02.568Z,13.10
2023-04-23T12:18:29.074Z,14.63
2023-04-23T12:20:56.349Z,13.25
2023-04-23T12:23:28.119Z,13.38
2023-04-23T12:25:55.154Z,12.60
2023-04-23T12:28:25.634Z,13.07
2023-04-23T12:30:52.377Z,12.68
2023-04-23T12:33:20.687Z,12.63
2023-04-23T12:35:51.601Z,11.90
2023-04-23T12:38:26.489Z,12.60
2023-04-23T12:40:59.188Z,11.40
2023-04-23T12:43:26.808Z,12.20
2023-04-23T12:45:54.939Z,11.10
2023-04-23T12:48:21.528Z,11.80
2023-04-23T12:50:48.460Z,11.15
2023-04-23T12:53:15.026Z,10.93
2023-04-23T12:55:43.235Z,10.70
2023-04-23T12:58:09.812Z,10.65
2023-04-23T13:00:36.365Z,11.85
2023-04-23T13:03:03.197Z,11.57
2023-04-23T13:05:29.820Z,12.00
2023-04-23T13:07:56.957Z,10.38
2023-04-23T13:10:23.501Z,13.57
2023-04-23T13:12:50.011Z,14.07
2023-04-23T13:15:17.235Z,11.95
2023-04-23T13:17:45.744Z,12.45
2023-04-23T13:20:12.282Z,12.55
2023-04-23T13:22:38.795Z,13.27
2023-04-23T13:25:05.850Z,12.10
2023-04-23T13:27:32.421Z,12.73
2023-04-23T13:29:59.230Z,12.80
2023-04-23T13:32:28.008Z,12.30
2023-04-23T13:34:54.565Z,12.07
2023-04-23T13:37:21.189Z,13.02
2023-04-23T13:39:48.367Z,14.30
2023-04-23T13:42:14.930Z,18.50
2023-04-23T13:44:41.538Z,20.30
2023-04-23T13:47:08.355Z,16.98
2023-04-23T13:49:34.929Z,17.42
2023-04-23T13:52:06.455Z,16.38
2023-04-23T13:54:33.355Z,19.95
2023-04-23T13:57:01.012Z,18.58
2023-04-23T13:59:27.498Z,19.17
2023-04-23T14:01:54.040Z,18.13
2023-04-23T14:04:22.680Z,18.52
2023-04-23T14:06:49.467Z,19.65
2023-04-23T14:09:16.070Z,18.58
2023-04-23T14:11:42.677Z,18.92
2023-04-23T14:14:09.374Z,17.63
2023-04-23T14:16:35.964Z,18.15
2023-04-23T14:19:02.519Z,17.15
2023-04-23T14:21:29.123Z,14.63
2023-04-23T14:24:00.932Z,15.18
2023-04-23T14:26:47.930Z,15.82
2023-04-23T14:29:23.393Z,15.73
2023-04-23T14:31:50.434Z,17.05
2023-04-23T14:34:17.003Z,15.70
2023-04-23T14:36:44.610Z,16.23
2023-04-23T14:39:11.888Z,16.70
2023-04-23T14:41:40.139Z,17.48
2023-04-23T14:44:06.713Z,16.15
2023-04-23T14:46:33.311Z,16.48
2023-04-23T14:49:00.072Z,16.20
2023-04-23T14:51:27.420Z,16.88
2023-04-23T14:53:55.894Z,15.68
2023-04-23T14:56:23.202Z,15.52
2023-04-23T14:58:49.776Z,16.13
2023-04-23T15:01:16.486Z,15.02
2023-04-23T15:03:44.580Z,13.75
2023-04-23T15:06:11.412Z,13.82
2023-04-23T15:08:37.903Z,14.20
2023-04-23T15:11:06.297Z,14.60
2023-04-23T15:13:35.726Z,12.77
2023-04-23T15:16:05.681Z,12.95
2023-04-23T15:18:33.727Z,11.15
2023-04-23T15:21:03.558Z,13.02
2023-04-23T15:23:33.243Z,11.95
2023-04-23T15:25:59.836Z,15.07
2023-04-23T15:28:26.330Z,14.43
2023-04-23T15:30:53.083Z,15.27
2023-04-23T15:33:21.787Z,15.25
2023-04-23T15:35:51.509Z,14.60
2023-04-23T15:38:18.827Z,12.88
2023-04-23T15:40:45.553Z,12.50
2023-04-23T15:43:15.919Z,12.98
2023-04-23T15:45:43.212Z,13.00
2023-04-23T15:48:10.230Z,12.00
2023-04-23T15:50:39.716Z,13.18
2023-04-23T15:53:06.512Z,12.05
2023-04-23T15:55:34.107Z,11.95
2023-04-23T15:58:04.106Z,11.27
2023-04-23T16:00:31.360Z,11.90
2023-04-23T16:02:58.860Z,10.38
2023-04-23T16:05:25.498Z,9.95
2023-04-23T16:07:52.174Z,9.00
2023-04-23T16:10:18.889Z,8.82
2023-04-23T16:12:45.802Z,8.57
2023-04-23T16:15:12.902Z,8.45
2023-04-23T16:17:39.560Z,10.15
2023-04-23T16:20:06.732Z,10.23
2023-04-23T16:22:33.426Z,11.00
2023-04-23T16:25:00.340Z,11.77
2023-04-23T16:27:26.886Z,11.38
2023-04-23T16:29:53.389Z,11.57
2023-04-23T16:32:20.716Z,11.00
2023-04-23T16:34:47.367Z,11.40
2023-04-23T16:37:15.808Z,12.45
2023-04-23T16:39:43.734Z,13.48
2023-04-23T16:42:10.579Z,12.70
2023-04-23T16:44:37.255Z,13.45
2023-04-23T16:47:04.245Z,12.63
2023-04-23T16:49:30.810Z,12.00
2023-04-23T16:51:57.367Z,12.43
2023-04-23T16:54:23.873Z,12.77
2023-04-23T16:56:50.505Z,12.82
2023-04-23T16:59:17.044Z,12.85
2023-04-23T17:01:43.642Z,13.63
2023-04-23T17:04:10.502Z,12.60
2023-04-23T17:06:37.098Z,12.23
2023-04-23T17:09:08.808Z,11.98
2023-04-23T17:11:35.979Z,12.85
2023-04-23T17:14:02.561Z,13.35
2023-04-23T17:16:29.526Z,11.70
2023-04-23T17:18:56.730Z,11.68
2023-04-23T17:21:23.480Z,14.32
2023-04-23T17:23:50.321Z,14.68
2023-04-23T17:26:16.921Z,14.82
2023-04-23T17:28:43.538Z,14.30
2023-04-23T17:31:10.302Z,13.85
2023-04-23T17:33:36.996Z,14.70
2023-04-23T17:36:04.251Z,15.82
2023-04-23T17:38:31.005Z,15.27
2023-04-23T17:40:58.665Z,13.75
2023-04-23T17:43:25.241Z,14.85
2023-04-23T17:45:51.827Z,14.63
2023-04-23T17:48:19.234Z,15.30
2023-04-23T17:50:47.012Z,14.20
2023-04-23T17:53:13.619Z,15.52
2023-04-23T17:55:40.248Z,15.07
2023-04-23T17:58:07.488Z,14.25
2023-04-23T18:00:41.481Z,13.25
2023-04-23T18:03:09.439Z,13.25
2023-04-23T18:05:36.334Z,11.88
2023-04-23T18:08:03.306Z,13.27
2023-04-23T18:10:29.954Z,13.20
2023-04-23T18:12:56.791Z,13.85
2023-04-23T18:15:25.596Z,14.10
2023-04-23T18:17:54.633Z,11.80
2023-04-23T18:20:24.850Z,12.35
2023-04-23T18:22:53.501Z,13.10
2023-04-23T18:25:20.292Z,14.27
2023-04-23T18:27:46.971Z,11.30
2023-04-23T18:30:15.299Z,12.77
2023-04-23T18:32:47.088Z,14.73
2023-04-23T18:35:14.254Z,16.80
2023-04-23T18:37:52.699Z,17.08
2023-04-23T18:40:19.686Z,19.33
2023-04-23T18:42:46.288Z,21.38
2023-04-23T18:45:12.857Z,20.75
2023-04-23T18:47:49.941Z,19.88
2023-04-23T18:50:54.970Z,23.70
2023-04-23T18:53:22.254Z,22.02
2023-04-23T18:55:48.848Z,22.95
2023-04-23T18:58:15.409Z,22.58
2023-04-23T19:00:41.946Z,21.23
2023-04-23T19:03:19.942Z,22.40
2023-04-23T19:05:52.839Z,22.10
2023-04-23T19:08:19.367Z,20.33
2023-04-23T19:10:45.910Z,20.05
2023-04-23T19:13:12.492Z,18.92
2023-04-23T19:15:39.166Z,21.05
2023-04-23T19:18:06.154Z,19.05
2023-04-23T19:20:32.804Z,17.90
2023-04-23T19:22:59.311Z,19.42
2023-04-23T19:25:26.002Z,18.50
2023-04-23T19:27:52.498Z,18.98
2023-04-23T19:30:19.043Z,18.15
2023-04-23T19:32:45.600Z,16.85
2023-04-23T19:35:12.141Z,18.65
2023-04-23T19:37:38.680Z,17.58
2023-04-23T19:40:05.733Z,15.50
2023-04-23T19:42:32.635Z,15.70
2023-04-23T19:44:59.195Z,16.00
2023-04-23T19:47:25.834Z,15.50
2023-04-23T19:49:52.532Z,16.13
2023-04-23T19:52:23.271Z,17.25
2023-04-23T19:54:49.869Z,15.48
2023-04-23T19:57:18.431Z,15.85
2023-04-23T19:59:46.152Z,15.63
2023-04-23T20:02:13.023Z,15.38
2023-04-23T20:04:39.745Z,15.52
2023-04-23T20:07:06.936Z,14.80
2023-04-23T20:09:33.854Z,15.43
2023-04-23T20:12:01.414Z,14.93
2023-04-23T20:14:29.002Z,14.80
2023-04-23T20:16:56.214Z,14.95
2023-04-23T20:19:25.891Z,13.75
2023-04-23T20:21:53.526Z,12.85
2023-04-23T20:24:21.444Z,12.82
2023-04-23T20:26:48.298Z,12.65
2023-04-23T20:29:14.848Z,11.40
2023-04-23T20:31:41.855Z,10.98
2023-04-23T20:34:08.536Z,11.52
2023-04-23T20:36:35.697Z,11.45
2023-04-23T20:39:05.645Z,10.98
2023-04-23T20:41:36.577Z,10.98
2023-04-23T20:44:04.968Z,9.52
2023-04-23T20:46:32.371Z,10.40
2023-04-23T20:49:00.900Z,10.52
2023-04-23T20:51:33.067Z,9.68
2023-04-23T20:53:59.817Z,9.73
2023-04-23T20:56:29.108Z,10.27
2023-04-23T20:58:57.472Z,9.63
2023-04-23T21:01:25.274Z,9.32
2023-04-23T21:03:53.585Z,9.30
2023-04-23T21:06:21.644Z,9.50
2023-04-23T21:08:48.474Z,10.40
2023-04-23T21:11:17.513Z,9.80
2023-04-23T21:13:44.619Z,9.30
2023-04-23T21:16:14.025Z,9.75
2023-04-23T21:18:43.648Z,8.55
2023-04-23T21:21:10.529Z,8.90
2023-04-23T21:23:37.045Z,8.32
2023-04-23T21:26:03.612Z,9.18
2023-04-23T21:28:30.952Z,8.52
2023-04-23T21:31:05.736Z,8.63
2023-04-23T21:33:32.355Z,8.40
2023-04-23T21:35:58.850Z,8.57
2023-04-23T21:38:25.404Z,9.10
2023-04-23T21:40:51.953Z,8.18
2023-04-23T21:43:18.505Z,9.20
2023-04-23T21:45:45.754Z,8.45
2023-04-23T21:48:13.177Z,8.88
2023-04-23T21:50:39.859Z,8.15
2023-04-23T21:53:06.937Z,8.18
2023-04-23T21:55:33.515Z,8.20
2023-04-23T21:58:13.967Z,8.25
2023-04-23T22:00:44.594Z,7.63
2023-04-23T22:03:12.130Z,8.15
2023-04-23T22:05:40.802Z,7.40
2023-04-23T22:08:07.532Z,7.80
2023-04-23T22:10:34.367Z,7.35
2023-04-23T22:13:01.302Z,7.20
2023-04-23T22:15:29.075Z,7.80
2023-04-23T22:17:59.149Z,7.25
2023-04-23T22:20:25.723Z,7.63
2023-04-23T22:22:52.392Z,6.88
2023-04-23T22:25:19.454Z,6.75
2023-04-23T22:27:45.965Z,6.93
2023-04-23T22:30:12.734Z,6.50
2023-04-23T22:32:40.019Z,6.80
2023-04-23T22:35:07.980Z,6.95
2023-04-23T22:37:35.377Z,6.63
2023-04-23T22:40:02.423Z,6.97
2023-04-23T22:42:28.955Z,6.50
2023-04-23T22:44:55.517Z,6.22
2023-04-23T22:47:22.355Z,5.85
2023-04-23T22:49:49.477Z,5.82
2023-04-23T22:52:16.779Z,6.45
2023-04-23T22:54:43.833Z,5.75
2023-04-23T22:57:11.971Z,6.30
2023-04-23T22:59:41.908Z,6.15
2023-04-23T23:02:08.876Z,6.13
2023-04-23T23:04:38.460Z,6.70
2023-04-23T23:07:05.839Z,6.32
2023-04-23T23:09:32.703Z,5.53
2023-04-23T23:12:03.595Z,5.75
2023-04-23T23:14:30.751Z,4.93
2023-04-23T23:16:58.029Z,5.40
2023-04-23T23:19:26.875Z,5.30
2023-04-23T23:21:53.651Z,5.07
2023-04-23T23:24:20.201Z,4.20
2023-04-23T23:26:46.764Z,4.40
2023-04-23T23:29:13.269Z,4.30
2023-04-23T23:31:40.089Z,4.90
2023-04-23T23:34:06.693Z,4.72
2023-04-23T23:36:34.158Z,4.60
2023-04-23T23:39:00.981Z,5.13
2023-04-23T23:41:27.500Z,4.97
2023-04-23T23:43:54.086Z,4.65
2023-04-23T23:46:20.921Z,4.60
2023-04-23T23:48:47.588Z,5.00
2023-04-23T23:51:14.391Z,5.05
2023-04-23T23:53:40.967Z,5.90
2023-04-23T23:56:07.514Z,4.85
2023-04-23T23:58:34.026Z,4.80
